Time;durP1;ratioP1;P1;durP2;ratioP2;P2;SDS_P1;SDS_P2;PMS_P1;PMS_P2;Temp;Humidity;BMP_temperature;BMP_pressure;BME280_temperature;BME280_humidity;BME280_pressure;Samples;Min_cycle;Max_cycle;Signal;HPM_P1;HPM_P2
2022/01/18 00:01:26;;;;;;;21.48;4.18;;;;;;;;;;5027222;28;20122;-59
2022/01/18 00:03:52;;;;;;;25.10;3.90;;;;;;;;;;5025664;28;20026;-59
2022/01/18 00:06:18;;;;;;;21.15;4.20;;;;;;;;;;5025192;28;20034;-60
2022/01/18 00:08:44;;;;;;;22.65;4.28;;;;;;;;;;5027353;28;20043;-60
2022/01/18 00:11:10;;;;;;;27.10;4.38;;;;;;;;;;5026192;28;20512;-60
2022/01/18 00:13:43;;;;;;;28.95;3.60;;;;;;;;;;5028463;28;20017;-60
2022/01/18 00:18:52;;;;;;;20.95;3.75;;;;;;;;;;5028821;28;20039;-59
2022/01/18 00:21:26;;;;;;;22.30;3.92;;;;;;;;;;5029292;28;20151;-59
2022/01/18 00:23:55;;;;;;;24.05;3.58;;;;;;;;;;5031411;28;20040;-59
2022/01/18 00:26:22;;;;;;;17.48;3.60;;;;;;;;;;5028283;28;20520;-59
2022/01/18 00:28:54;;;;;;;26.15;4.15;;;;;;;;;;5020393;28;20559;-61
2022/01/18 00:39:14;;;;;;;18.13;3.13;;;;;;;;;;5024822;28;20047;-60
2022/01/18 00:41:40;;;;;;;20.92;3.33;;;;;;;;;;5027651;28;20332;-60
2022/01/18 00:44:08;;;;;;;19.67;3.28;;;;;;;;;;5024179;28;20033;-59
2022/01/18 00:46:34;;;;;;;23.85;3.55;;;;;;;;;;5027410;28;20045;-60
2022/01/18 00:49:01;;;;;;;17.67;3.10;;;;;;;;;;5023282;28;20030;-60
2022/01/18 00:51:33;;;;;;;25.75;3.38;;;;;;;;;;5030377;28;20480;-60
2022/01/18 00:54:00;;;;;;;18.80;3.30;;;;;;;;;;5029076;28;20022;-60
2022/01/18 00:56:30;;;;;;;19.77;3.17;;;;;;;;;;5027559;28;20749;-60
2022/01/18 00:58:56;;;;;;;15.05;2.78;;;;;;;;;;5026812;28;21584;-60
2022/01/18 01:01:24;;;;;;;19.67;2.72;;;;;;;;;;5027439;28;20131;-59
2022/01/18 01:03:52;;;;;;;18.15;3.47;;;;;;;;;;5028389;28;20084;-60
2022/01/18 01:06:18;;;;;;;20.70;3.35;;;;;;;;;;5027527;28;20086;-60
2022/01/18 01:08:44;;;;;;;22.75;3.38;;;;;;;;;;5019147;28;20083;-60
2022/01/18 01:11:11;;;;;;;23.02;3.60;;;;;;;;;;5020153;28;20757;-59
2022/01/18 01:13:41;;;;;;;21.63;3.50;;;;;;;;;;5028002;28;20023;-60
2022/01/18 01:19:12;;;;;;;24.38;3.63;;;;;;;;;;5025059;28;20083;-59
2022/01/18 01:45:44;;;;;;;25.42;4.18;;;;;;;;;;5031194;28;20033;-60
2022/01/18 01:48:10;;;;;;;29.50;4.93;;;;;;;;;;5033250;28;20056;-60
2022/01/18 01:51:00;;;;;;;25.88;4.70;;;;;;;;;;5032038;28;20116;-61
2022/01/18 01:53:26;;;;;;;25.08;4.93;;;;;;;;;;5030505;28;20241;-60
2022/01/18 01:55:53;;;;;;;27.88;4.80;;;;;;;;;;5032198;28;20025;-61
2022/01/18 01:58:20;;;;;;;24.38;5.50;;;;;;;;;;5030085;28;20564;-60
2022/01/18 02:00:50;;;;;;;29.75;4.97;;;;;;;;;;5031251;28;20253;-60
2022/01/18 02:03:16;;;;;;;25.08;4.82;;;;;;;;;;5030672;28;20124;-60
2022/01/18 02:05:42;;;;;;;33.55;6.03;;;;;;;;;;5029523;28;20121;-59
2022/01/18 02:08:08;;;;;;;23.90;5.03;;;;;;;;;;5027063;28;20680;-60
2022/01/18 02:10:39;;;;;;;29.75;5.38;;;;;;;;;;5030475;28;20041;-60
2022/01/18 02:13:06;;;;;;;27.63;6.30;;;;;;;;;;5027624;28;20029;-60
2022/01/18 02:15:36;;;;;;;27.73;5.13;;;;;;;;;;5030266;28;20113;-60
2022/01/18 02:23:32;;;;;;;35.47;5.88;;;;;;;;;;5028537;28;20660;-60
2022/01/18 02:25:58;;;;;;;29.90;5.28;;;;;;;;;;5030433;28;20108;-59
2022/01/18 02:28:25;;;;;;;33.80;5.70;;;;;;;;;;5029589;28;20029;-60
2022/01/18 02:30:51;;;;;;;36.25;5.55;;;;;;;;;;5028796;28;20551;-60
2022/01/18 02:33:18;;;;;;;36.17;6.03;;;;;;;;;;5031068;28;20206;-60
2022/01/18 02:35:45;;;;;;;22.85;5.10;;;;;;;;;;5031431;28;20029;-60
2022/01/18 02:38:11;;;;;;;33.38;6.28;;;;;;;;;;5023740;28;20025;-60
2022/01/18 02:40:37;;;;;;;29.83;6.00;;;;;;;;;;5029153;28;20052;-61
2022/01/18 02:43:46;;;;;;;25.58;5.30;;;;;;;;;;5031598;28;20014;-60
2022/01/18 02:45:54;;;;;;;35.33;6.10;;;;;;;;;;5031313;28;20033;-60
2022/01/18 02:48:20;;;;;;;25.67;5.15;;;;;;;;;;5030121;28;20029;-60
2022/01/18 02:50:46;;;;;;;28.20;5.97;;;;;;;;;;5030547;28;20032;-60
2022/01/18 02:53:12;;;;;;;29.85;5.22;;;;;;;;;;5024253;28;20033;-60
2022/01/18 02:55:38;;;;;;;23.20;4.57;;;;;;;;;;5029313;28;20091;-61
2022/01/18 02:58:09;;;;;;;36.33;5.57;;;;;;;;;;5031448;28;20032;-61
2022/01/18 03:03:11;;;;;;;33.40;5.63;;;;;;;;;;5028187;28;20592;-61
2022/01/18 03:03:31;;;;;;;25.02;4.78;;;;;;;;;;5027057;28;20066;-59
2022/01/18 03:05:58;;;;;;;25.45;5.40;;;;;;;;;;5028790;28;20025;-60
2022/01/18 03:08:25;;;;;;;23.75;5.18;;;;;;;;;;5028312;28;20054;-59
2022/01/18 03:10:51;;;;;;;29.33;5.43;;;;;;;;;;5030378;28;20071;-61
2022/01/18 03:13:18;;;;;;;24.85;5.28;;;;;;;;;;5032142;28;20037;-60
2022/01/18 03:15:44;;;;;;;36.72;5.80;;;;;;;;;;5029745;28;20030;-60
2022/01/18 03:18:10;;;;;;;32.65;6.00;;;;;;;;;;5029427;28;20026;-61
2022/01/18 03:20:37;;;;;;;35.10;6.30;;;;;;;;;;5030163;28;20036;-60
2022/01/18 03:23:08;;;;;;;34.13;5.78;;;;;;;;;;5026900;28;20079;-60
2022/01/18 03:28:04;;;;;;;25.42;5.45;;;;;;;;;;5027578;28;20163;-60
2022/01/18 03:30:32;;;;;;;31.10;5.30;;;;;;;;;;5028475;28;20026;-60
2022/01/18 03:32:58;;;;;;;34.83;6.10;;;;;;;;;;5024369;28;20029;-60
2022/01/18 03:35:24;;;;;;;35.47;6.47;;;;;;;;;;5027966;28;20665;-59
2022/01/18 03:37:50;;;;;;;28.63;4.95;;;;;;;;;;5026229;28;20932;-60
2022/01/18 03:40:16;;;;;;;29.42;5.68;;;;;;;;;;5028904;28;20043;-60
2022/01/18 03:42:45;;;;;;;29.33;6.13;;;;;;;;;;5032057;28;20072;-60
2022/01/18 03:45:13;;;;;;;30.73;5.65;;;;;;;;;;5029024;28;20020;-60
2022/01/18 03:47:40;;;;;;;30.08;5.88;;;;;;;;;;5028976;28;20741;-60
2022/01/18 03:50:07;;;;;;;32.67;6.78;;;;;;;;;;5029815;28;20033;-59
2022/01/18 03:52:33;;;;;;;34.17;6.30;;;;;;;;;;5029392;28;20047;-61
2022/01/18 03:54:59;;;;;;;23.25;5.35;;;;;;;;;;5028980;28;20512;-60
2022/01/18 03:57:25;;;;;;;33.72;6.03;;;;;;;;;;5029044;28;20032;-60
2022/01/18 03:59:51;;;;;;;38.92;7.03;;;;;;;;;;5029594;28;20021;-60
2022/01/18 04:02:17;;;;;;;29.08;6.32;;;;;;;;;;5030420;28;20031;-60
2022/01/18 04:04:43;;;;;;;27.70;5.93;;;;;;;;;;5027734;28;20037;-60
2022/01/18 04:07:09;;;;;;;25.23;5.75;;;;;;;;;;5028348;28;20802;-60
2022/01/18 04:09:35;;;;;;;27.05;5.95;;;;;;;;;;5027699;28;20034;-61
2022/01/18 04:12:02;;;;;;;23.85;4.90;;;;;;;;;;5029787;28;20690;-60
2022/01/18 04:14:28;;;;;;;25.73;5.40;;;;;;;;;;5030858;28;20362;-61
2022/01/18 04:17:08;;;;;;;27.88;6.13;;;;;;;;;;5025443;28;20448;-60
2022/01/18 04:25:51;;;;;;;35.83;6.50;;;;;;;;;;5024071;28;20026;-61
2022/01/18 04:28:05;;;;;;;28.70;6.75;;;;;;;;;;5025985;28;20036;-60
2022/01/18 04:30:31;;;;;;;27.42;6.72;;;;;;;;;;5025754;28;20048;-61
2022/01/18 04:32:57;;;;;;;41.05;8.65;;;;;;;;;;5028187;28;20037;-61
2022/01/18 04:35:23;;;;;;;33.70;8.02;;;;;;;;;;5026832;28;20029;-59
2022/01/18 04:37:49;;;;;;;34.38;7.82;;;;;;;;;;5026932;28;20690;-59
2022/01/18 04:40:18;;;;;;;32.22;8.65;;;;;;;;;;5023427;28;20106;-60
2022/01/18 04:48:29;;;;;;;42.65;10.38;;;;;;;;;;5019163;28;20591;-59
2022/01/18 04:51:15;;;;;;;40.05;10.25;;;;;;;;;;5027679;28;20062;-59
2022/01/18 04:53:49;;;;;;;45.22;11.20;;;;;;;;;;5025897;28;20032;-60
2022/01/18 04:56:18;;;;;;;40.20;10.38;;;;;;;;;;5028014;28;20032;-60
2022/01/18 04:58:44;;;;;;;38.80;11.00;;;;;;;;;;5029227;28;20733;-59
2022/01/18 05:01:11;;;;;;;45.50;12.70;;;;;;;;;;5030717;28;20025;-60
2022/01/18 05:03:37;;;;;;;35.40;10.75;;;;;;;;;;5031564;28;20108;-60
2022/01/18 05:06:09;;;;;;;41.00;11.77;;;;;;;;;;5029497;28;20575;-60
2022/01/18 05:08:36;;;;;;;44.70;13.05;;;;;;;;;;5029915;28;20531;-60
2022/01/18 05:11:02;;;;;;;51.50;14.27;;;;;;;;;;5029648;28;20461;-60
2022/01/18 05:13:50;;;;;;;48.85;14.90;;;;;;;;;;5028899;28;20694;-60
2022/01/18 05:19:09;;;;;;;49.47;14.18;;;;;;;;;;5027355;28;20087;-60
2022/01/18 05:22:57;;;;;;;53.40;13.93;;;;;;;;;;5031653;28;20107;-60
2022/01/18 05:24:26;;;;;;;50.00;14.25;;;;;;;;;;5028706;28;20044;-60
2022/01/18 05:26:52;;;;;;;45.80;14.45;;;;;;;;;;5031240;28;20716;-60
2022/01/18 05:29:18;;;;;;;37.25;13.20;;;;;;;;;;5029636;28;20104;-61
2022/01/18 05:31:44;;;;;;;47.80;14.48;;;;;;;;;;5027456;28;20025;-60
2022/01/18 05:34:11;;;;;;;47.97;13.82;;;;;;;;;;5031332;28;20030;-60
2022/01/18 05:36:37;;;;;;;41.97;14.13;;;;;;;;;;5032093;28;20040;-61
2022/01/18 05:39:03;;;;;;;33.40;13.57;;;;;;;;;;5033282;28;20025;-60
2022/01/18 05:41:29;;;;;;;49.92;13.40;;;;;;;;;;5031513;28;20501;-60
2022/01/18 05:43:55;;;;;;;50.95;13.60;;;;;;;;;;5030238;28;20064;-60
2022/01/18 05:46:21;;;;;;;36.88;13.23;;;;;;;;;;5030784;28;20057;-60
2022/01/18 05:48:47;;;;;;;35.70;12.85;;;;;;;;;;5031284;28;20503;-60
2022/01/18 05:51:13;;;;;;;37.67;12.30;;;;;;;;;;5032296;28;20033;-60
2022/01/18 05:53:41;;;;;;;35.83;13.60;;;;;;;;;;5032523;28;20051;-60
2022/01/18 05:56:11;;;;;;;38.97;12.60;;;;;;;;;;5030236;28;20079;-60
2022/01/18 05:58:37;;;;;;;31.17;12.30;;;;;;;;;;5030142;28;20018;-60
2022/01/18 06:01:03;;;;;;;40.75;13.32;;;;;;;;;;5031388;28;20167;-61
2022/01/18 06:03:52;;;;;;;33.45;12.40;;;;;;;;;;5029697;28;20026;-60
2022/01/18 06:09:03;;;;;;;36.78;11.98;;;;;;;;;;5030556;28;20119;-60
2022/01/18 06:11:29;;;;;;;31.60;11.32;;;;;;;;;;5030664;28;20790;-60
2022/01/18 06:13:55;;;;;;;36.22;11.48;;;;;;;;;;5030005;28;20033;-59
2022/01/18 06:16:21;;;;;;;37.92;11.40;;;;;;;;;;5032849;28;20575;-60
2022/01/18 06:18:47;;;;;;;37.78;11.98;;;;;;;;;;5029045;28;20106;-60
2022/01/18 06:21:13;;;;;;;32.58;11.45;;;;;;;;;;5032014;28;20038;-60
2022/01/18 06:23:39;;;;;;;39.42;11.98;;;;;;;;;;5032000;28;20114;-60
2022/01/18 06:26:05;;;;;;;34.53;11.93;;;;;;;;;;5029102;28;20036;-60
2022/01/18 06:28:32;;;;;;;28.98;10.93;;;;;;;;;;5027021;28;20044;-60
2022/01/18 06:30:58;;;;;;;41.53;12.82;;;;;;;;;;5032123;28;20051;-60
2022/01/18 06:33:24;;;;;;;33.30;12.68;;;;;;;;;;5031960;28;20025;-60
2022/01/18 06:35:50;;;;;;;36.63;12.35;;;;;;;;;;5031587;28;20112;-60
2022/01/18 06:38:16;;;;;;;36.95;12.68;;;;;;;;;;5029198;28;20036;-59
2022/01/18 06:40:44;;;;;;;29.10;11.60;;;;;;;;;;5028526;28;20428;-60
2022/01/18 06:43:10;;;;;;;31.70;11.57;;;;;;;;;;5030950;28;20385;-59
2022/01/18 06:45:36;;;;;;;37.15;13.15;;;;;;;;;;5029381;28;20029;-61
2022/01/18 06:48:02;;;;;;;36.53;12.35;;;;;;;;;;5029602;28;20433;-60
2022/01/18 06:50:29;;;;;;;35.30;12.60;;;;;;;;;;5032383;28;20033;-60
2022/01/18 06:52:55;;;;;;;31.95;13.10;;;;;;;;;;5029735;28;20029;-59
2022/01/18 06:55:21;;;;;;;39.25;14.68;;;;;;;;;;5028329;28;20022;-60
2022/01/18 06:57:47;;;;;;;46.58;14.40;;;;;;;;;;5025291;28;20033;-60
2022/01/18 07:00:13;;;;;;;43.63;14.90;;;;;;;;;;5031075;28;20013;-61
2022/01/18 07:02:39;;;;;;;44.90;15.43;;;;;;;;;;5025257;28;20081;-61
2022/01/18 07:05:06;;;;;;;44.13;14.82;;;;;;;;;;5027720;28;20848;-60
2022/01/18 07:07:32;;;;;;;40.08;14.43;;;;;;;;;;5027485;28;20457;-60
2022/01/18 07:09:57;;;;;;;33.30;14.43;;;;;;;;;;5023133;28;20115;-60
2022/01/18 07:12:25;;;;;;;36.83;13.93;;;;;;;;;;5029018;28;20413;-61
2022/01/18 07:14:51;;;;;;;40.97;15.02;;;;;;;;;;5031358;28;20025;-59
2022/01/18 07:17:17;;;;;;;41.35;14.35;;;;;;;;;;5025789;28;20036;-60
2022/01/18 07:19:43;;;;;;;35.40;12.73;;;;;;;;;;5028573;28;20035;-60
2022/01/18 07:22:09;;;;;;;26.38;12.45;;;;;;;;;;5032302;28;20184;-60
2022/01/18 07:24:46;;;;;;;35.70;13.32;;;;;;;;;;5025859;28;20025;-61
2022/01/18 07:27:13;;;;;;;37.55;13.38;;;;;;;;;;5031229;28;20036;-61
2022/01/18 07:29:41;;;;;;;43.28;13.75;;;;;;;;;;5028054;28;20555;-61
2022/01/18 07:32:07;;;;;;;27.63;12.52;;;;;;;;;;5029590;28;20061;-62
2022/01/18 07:34:36;;;;;;;42.95;13.50;;;;;;;;;;5028084;28;20033;-62
2022/01/18 07:37:03;;;;;;;36.92;13.23;;;;;;;;;;5029802;28;20482;-62
2022/01/18 07:39:29;;;;;;;37.40;12.85;;;;;;;;;;5028031;28;20025;-61
2022/01/18 07:41:55;;;;;;;37.00;13.43;;;;;;;;;;5029711;28;20067;-61
2022/01/18 07:44:21;;;;;;;32.20;13.65;;;;;;;;;;5026837;28;20057;-62
2022/01/18 07:46:47;;;;;;;35.90;14.95;;;;;;;;;;5026481;28;20034;-62
2022/01/18 07:49:13;;;;;;;36.88;14.43;;;;;;;;;;5027923;28;20037;-61
2022/01/18 07:51:39;;;;;;;43.28;15.23;;;;;;;;;;5030458;28;20530;-61
2022/01/18 07:54:05;;;;;;;42.88;15.10;;;;;;;;;;5028945;28;20637;-61
2022/01/18 07:56:31;;;;;;;42.25;15.02;;;;;;;;;;5026645;28;20028;-61
2022/01/18 07:58:57;;;;;;;38.33;14.60;;;;;;;;;;5029296;28;20450;-61
2022/01/18 08:01:22;;;;;;;38.45;15.32;;;;;;;;;;5027414;28;20035;-62
2022/01/18 08:03:48;;;;;;;43.17;15.57;;;;;;;;;;5025563;28;20037;-61
2022/01/18 08:06:14;;;;;;;45.05;17.42;;;;;;;;;;5027051;28;20035;-61
2022/01/18 08:08:40;;;;;;;40.70;17.05;;;;;;;;;;5027003;28;20480;-61
2022/01/18 08:11:07;;;;;;;40.55;16.33;;;;;;;;;;5026003;28;20802;-61
2022/01/18 08:13:41;;;;;;;44.78;16.80;;;;;;;;;;5030198;28;20033;-62
2022/01/18 08:18:52;;;;;;;39.22;16.65;;;;;;;;;;5027669;28;20033;-61
2022/01/18 08:21:18;;;;;;;42.20;16.15;;;;;;;;;;5030318;28;20079;-61
2022/01/18 08:23:44;;;;;;;44.33;16.95;;;;;;;;;;5028456;28;20021;-61
2022/01/18 08:26:10;;;;;;;45.55;16.88;;;;;;;;;;5024264;28;20337;-62
2022/01/18 08:28:36;;;;;;;52.95;18.02;;;;;;;;;;5026012;28;20033;-61
2022/01/18 08:31:03;;;;;;;46.17;17.50;;;;;;;;;;5028209;28;20037;-61
2022/01/18 08:33:31;;;;;;;40.17;17.10;;;;;;;;;;5025999;28;20535;-61
2022/01/18 08:35:59;;;;;;;45.60;17.35;;;;;;;;;;5027593;28;20524;-61
2022/01/18 08:38:25;;;;;;;44.10;17.35;;;;;;;;;;5026021;28;20022;-61
2022/01/18 08:40:51;;;;;;;40.22;18.05;;;;;;;;;;5024593;28;20060;-62
2022/01/18 08:43:17;;;;;;;43.03;19.17;;;;;;;;;;5026308;28;20645;-61
2022/01/18 08:45:43;;;;;;;45.45;19.92;;;;;;;;;;5027156;28;20537;-61
2022/01/18 08:48:09;;;;;;;43.83;19.63;;;;;;;;;;5026735;28;20633;-61
2022/01/18 08:50:35;;;;;;;56.03;22.08;;;;;;;;;;5024402;28;20033;-61
2022/01/18 08:53:01;;;;;;;48.17;20.88;;;;;;;;;;5028912;28;20460;-61
2022/01/18 08:55:27;;;;;;;51.70;22.23;;;;;;;;;;5025332;28;20477;-62
2022/01/18 08:57:53;;;;;;;51.33;22.73;;;;;;;;;;5027066;28;20103;-61
2022/01/18 09:00:20;;;;;;;52.83;23.48;;;;;;;;;;5027505;28;20075;-61
2022/01/18 09:02:46;;;;;;;51.10;22.48;;;;;;;;;;5027370;28;20048;-62
2022/01/18 09:05:12;;;;;;;53.65;23.05;;;;;;;;;;5027332;28;20033;-62
2022/01/18 09:07:39;;;;;;;50.85;23.55;;;;;;;;;;5028631;28;20033;-61
2022/01/18 09:10:07;;;;;;;50.72;23.67;;;;;;;;;;5028641;28;20447;-61
2022/01/18 09:12:34;;;;;;;54.88;24.80;;;;;;;;;;5028402;28;20649;-62
2022/01/18 09:15:00;;;;;;;54.08;25.95;;;;;;;;;;5025537;28;20119;-61
2022/01/18 09:17:28;;;;;;;52.50;24.50;;;;;;;;;;5026956;28;20414;-61
2022/01/18 09:19:54;;;;;;;56.70;25.25;;;;;;;;;;5027225;28;20021;-61
2022/01/18 09:22:20;;;;;;;58.75;27.00;;;;;;;;;;5028950;28;20034;-61
2022/01/18 09:24:46;;;;;;;54.47;26.35;;;;;;;;;;5027486;28;20025;-62
2022/01/18 09:27:12;;;;;;;62.28;27.02;;;;;;;;;;5024067;28;20030;-61
2022/01/18 09:29:40;;;;;;;58.05;26.15;;;;;;;;;;5027791;28;20032;-62
2022/01/18 09:32:06;;;;;;;56.83;27.38;;;;;;;;;;5027732;28;20696;-61
2022/01/18 09:34:32;;;;;;;55.80;28.95;;;;;;;;;;5026686;28;20193;-61
2022/01/18 09:36:58;;;;;;;59.28;29.42;;;;;;;;;;5027080;28;20080;-61
2022/01/18 09:39:25;;;;;;;63.63;30.17;;;;;;;;;;5030104;28;20086;-61
2022/01/18 09:41:53;;;;;;;69.80;31.52;;;;;;;;;;5029776;28;20137;-61
2022/01/18 09:44:19;;;;;;;71.05;31.10;;;;;;;;;;5028894;28;20052;-61
2022/01/18 09:46:45;;;;;;;63.63;30.50;;;;;;;;;;5029153;28;20540;-61
2022/01/18 09:49:12;;;;;;;65.43;30.75;;;;;;;;;;5031906;28;20236;-61
2022/01/18 09:51:38;;;;;;;62.75;29.00;;;;;;;;;;5029645;28;20469;-61
2022/01/18 09:54:04;;;;;;;66.82;29.85;;;;;;;;;;5032980;28;20037;-61
2022/01/18 09:56:30;;;;;;;61.90;27.77;;;;;;;;;;5031082;28;20025;-61
2022/01/18 09:58:56;;;;;;;58.17;28.67;;;;;;;;;;5030225;28;20091;-61
2022/01/18 10:01:23;;;;;;;60.47;27.10;;;;;;;;;;5031135;28;20033;-61
2022/01/18 10:03:48;;;;;;;69.20;28.23;;;;;;;;;;5029102;28;20021;-61
2022/01/18 10:06:18;;;;;;;55.90;25.35;;;;;;;;;;5032795;28;20124;-61
2022/01/18 10:08:47;;;;;;;56.67;25.90;;;;;;;;;;5027351;28;20626;-61
2022/01/18 10:11:16;;;;;;;54.50;23.38;;;;;;;;;;5030298;28;20033;-61
2022/01/18 10:13:42;;;;;;;49.55;24.00;;;;;;;;;;5027331;28;20017;-61
2022/01/18 10:16:13;;;;;;;48.47;20.73;;;;;;;;;;5028835;28;20029;-61
2022/01/18 10:18:46;;;;;;;49.70;23.65;;;;;;;;;;5030528;28;20132;-61
2022/01/18 10:21:13;;;;;;;53.65;23.15;;;;;;;;;;5028679;28;20081;-61
2022/01/18 10:23:39;;;;;;;50.13;22.98;;;;;;;;;;5031101;28;20025;-61
2022/01/18 10:26:15;;;;;;;54.70;24.02;;;;;;;;;;5031558;28;20120;-61
2022/01/18 10:28:41;;;;;;;56.85;24.23;;;;;;;;;;5029017;28;20021;-61
2022/01/18 10:31:27;;;;;;;51.20;21.70;;;;;;;;;;5026665;28;21481;-62
2022/01/18 10:34:42;;;;;;;48.63;21.60;;;;;;;;;;5028325;28;20937;-61
2022/01/18 10:37:16;;;;;;;54.97;23.33;;;;;;;;;;4979682;28;20030;-61
2022/01/18 10:39:42;;;;;;;;;;;;;;;;;;5026913;28;20296;-61
2022/01/18 10:42:17;;;;;;;51.35;24.48;;;;;;;;;;5027714;28;20466;-61
2022/01/18 10:44:45;;;;;;;50.22;23.17;;;;;;;;;;5032071;28;20119;-61
2022/01/18 10:47:12;;;;;;;50.53;21.98;;;;;;;;;;5030439;28;20051;-61
2022/01/18 10:49:40;;;;;;;50.55;20.40;;;;;;;;;;5029823;28;20063;-62
2022/01/18 10:52:10;;;;;;;47.90;21.65;;;;;;;;;;5028583;28;20025;-62
2022/01/18 10:54:44;;;;;;;44.58;20.50;;;;;;;;;;5027484;28;20030;-62
2022/01/18 10:57:12;;;;;;;42.65;19.70;;;;;;;;;;5026337;28;20108;-61
2022/01/18 10:59:38;;;;;;;42.00;18.85;;;;;;;;;;5031189;28;20952;-62
2022/01/18 11:02:05;;;;;;;42.78;18.58;;;;;;;;;;5025878;28;20848;-61
2022/01/18 11:04:31;;;;;;;44.63;17.85;;;;;;;;;;5027378;28;20147;-61
2022/01/18 11:06:58;;;;;;;43.63;19.90;;;;;;;;;;5030311;28;20064;-62
2022/01/18 11:09:24;;;;;;;40.03;18.20;;;;;;;;;;5029692;28;20109;-62
2022/01/18 11:11:51;;;;;;;39.88;18.25;;;;;;;;;;5028377;28;20111;-62
2022/01/18 11:14:19;;;;;;;40.53;17.08;;;;;;;;;;5028771;28;20065;-62
2022/01/18 11:16:46;;;;;;;37.65;17.85;;;;;;;;;;5027749;28;20108;-61
2022/01/18 11:19:18;;;;;;;37.03;18.80;;;;;;;;;;5027930;28;20611;-61
2022/01/18 11:21:45;;;;;;;47.20;19.67;;;;;;;;;;5027055;28;20064;-61
2022/01/18 11:24:11;;;;;;;40.85;18.65;;;;;;;;;;5030628;28;20100;-61
2022/01/18 11:26:39;;;;;;;42.70;17.67;;;;;;;;;;5024189;28;20053;-62
2022/01/18 11:29:06;;;;;;;38.42;16.50;;;;;;;;;;5027903;28;20032;-62
2022/01/18 11:31:32;;;;;;;47.15;18.45;;;;;;;;;;5028511;28;20022;-62
2022/01/18 11:34:00;;;;;;;39.78;17.17;;;;;;;;;;5028952;28;20435;-62
2022/01/18 11:36:29;;;;;;;43.42;19.13;;;;;;;;;;5026688;28;20033;-61
2022/01/18 11:38:58;;;;;;;44.58;18.25;;;;;;;;;;5025495;28;20060;-61
2022/01/18 11:41:28;;;;;;;44.50;16.38;;;;;;;;;;5027294;28;20032;-61
2022/01/18 11:43:56;;;;;;;43.00;17.30;;;;;;;;;;5030408;28;20031;-62
2022/01/18 11:46:26;;;;;;;41.00;17.35;;;;;;;;;;5029956;28;20048;-61
2022/01/18 11:49:03;;;;;;;51.55;18.92;;;;;;;;;;5028755;28;20029;-62
2022/01/18 11:51:57;;;;;;;45.90;17.98;;;;;;;;;;5026889;28;20121;-61
2022/01/18 11:54:43;;;;;;;41.55;17.73;;;;;;;;;;5025035;28;20055;-62
2022/01/18 11:57:25;;;;;;;44.88;17.48;;;;;;;;;;5024690;28;20104;-62
2022/01/18 11:59:52;;;;;;;46.75;17.58;;;;;;;;;;5027397;28;20053;-62
2022/01/18 12:02:26;;;;;;;41.20;17.70;;;;;;;;;;5027306;28;20048;-62
2022/01/18 12:04:56;;;;;;;39.92;16.52;;;;;;;;;;5025159;28;20346;-62
2022/01/18 12:07:34;;;;;;;45.08;16.77;;;;;;;;;;5025978;28;20086;-62
2022/01/18 12:10:06;;;;;;;43.03;16.55;;;;;;;;;;5025600;28;20146;-62
2022/01/18 12:12:45;;;;;;;44.60;16.90;;;;;;;;;;5028236;28;20132;-61
2022/01/18 12:15:23;;;;;;;46.60;17.55;;;;;;;;;;5028487;28;20466;-61
2022/01/18 12:17:54;;;;;;;48.78;17.75;;;;;;;;;;5025681;28;20562;-61
2022/01/18 12:20:40;;;;;;;42.05;17.33;;;;;;;;;;5026460;28;20025;-62
2022/01/18 12:23:07;;;;;;;44.90;17.42;;;;;;;;;;5025673;28;21235;-61
2022/01/18 12:25:35;;;;;;;42.13;16.83;;;;;;;;;;5024657;28;20037;-62
2022/01/18 12:28:21;;;;;;;39.92;15.07;;;;;;;;;;5027055;28;20481;-62
2022/01/18 12:31:06;;;;;;;40.38;16.00;;;;;;;;;;5027262;28;20150;-61
2022/01/18 12:33:45;;;;;;;42.53;15.15;;;;;;;;;;5029537;28;20021;-62
2022/01/18 12:36:31;;;;;;;44.75;15.55;;;;;;;;;;5027169;28;20435;-62
2022/01/18 12:39:01;;;;;;;39.08;16.27;;;;;;;;;;5028329;28;20036;-62
2022/01/18 12:41:41;;;;;;;47.90;16.67;;;;;;;;;;5030363;28;20033;-61
2022/01/18 12:44:22;;;;;;;46.63;16.63;;;;;;;;;;5027642;28;20139;-62
2022/01/18 12:46:55;;;;;;;36.45;15.38;;;;;;;;;;5026215;28;20281;-62
2022/01/18 12:49:21;;;;;;;44.70;15.10;;;;;;;;;;5026257;28;20040;-62
2022/01/18 12:51:53;;;;;;;38.10;14.40;;;;;;;;;;5023141;28;20457;-62
2022/01/18 12:54:19;;;;;;;32.60;13.47;;;;;;;;;;5026990;28;20025;-61
2022/01/18 12:56:45;;;;;;;39.75;13.60;;;;;;;;;;5023624;28;20036;-61
2022/01/18 12:59:11;;;;;;;32.83;12.75;;;;;;;;;;5026983;28;20280;-62
2022/01/18 13:01:37;;;;;;;36.50;13.25;;;;;;;;;;5021442;28;20056;-62
2022/01/18 13:04:07;;;;;;;34.25;12.43;;;;;;;;;;5025144;28;20075;-62
2022/01/18 13:06:35;;;;;;;35.72;12.85;;;;;;;;;;5028017;28;20438;-63
2022/01/18 13:09:03;;;;;;;31.65;12.75;;;;;;;;;;5025942;28;20028;-61
2022/01/18 13:11:38;;;;;;;36.70;13.90;;;;;;;;;;5027300;28;20560;-62
2022/01/18 13:14:11;;;;;;;32.53;12.48;;;;;;;;;;5026824;28;20032;-62
2022/01/18 13:27:23;;;;;;;32.65;11.95;;;;;;;;;;5029676;28;20036;-62
2022/01/18 13:29:51;;;;;;;29.20;12.15;;;;;;;;;;5032109;28;20025;-61
2022/01/18 13:32:20;;;;;;;37.78;13.38;;;;;;;;;;5030505;28;20061;-62
2022/01/18 13:34:48;;;;;;;39.63;11.60;;;;;;;;;;5024315;28;20483;-61
2022/01/18 13:37:15;;;;;;;31.42;10.68;;;;;;;;;;5028965;28;20133;-62
2022/01/18 13:39:46;;;;;;;33.42;10.15;;;;;;;;;;5032697;28;20791;-62
2022/01/18 13:42:12;;;;;;;31.80;9.73;;;;;;;;;;5033586;28;20029;-61
2022/01/18 13:44:39;;;;;;;36.95;11.70;;;;;;;;;;5032728;28;20040;-62
2022/01/18 13:47:31;;;;;;;35.85;11.30;;;;;;;;;;5032182;28;20132;-62
2022/01/18 13:49:57;;;;;;;30.35;11.05;;;;;;;;;;5027817;28;20037;-62
2022/01/18 13:52:29;;;;;;;33.85;11.35;;;;;;;;;;5032548;28;20396;-62
2022/01/18 13:54:55;;;;;;;29.27;10.95;;;;;;;;;;5028676;28;20511;-62
2022/01/18 13:57:22;;;;;;;32.33;10.50;;;;;;;;;;5028660;28;20028;-61
2022/01/18 13:59:49;;;;;;;35.28;10.48;;;;;;;;;;5027926;28;20028;-61
2022/01/18 14:02:17;;;;;;;25.27;9.63;;;;;;;;;;5031202;28;20036;-62
2022/01/18 14:04:44;;;;;;;25.23;8.52;;;;;;;;;;5026060;28;20120;-62
2022/01/18 14:07:10;;;;;;;30.13;10.25;;;;;;;;;;5032437;28;20451;-62
2022/01/18 14:09:36;;;;;;;52.05;22.42;;;;;;;;;;5031955;28;20079;-61
2022/01/18 14:12:03;;;;;;;37.63;11.68;;;;;;;;;;5030174;28;20504;-61
2022/01/18 14:14:30;;;;;;;24.60;9.43;;;;;;;;;;5030535;28;20067;-62
2022/01/18 14:16:57;;;;;;;28.05;10.20;;;;;;;;;;5028850;28;20025;-62
2022/01/18 14:19:31;;;;;;;24.83;9.73;;;;;;;;;;5028474;28;20017;-62
2022/01/18 14:21:58;;;;;;;29.33;9.98;;;;;;;;;;5027041;28;20033;-62
2022/01/18 14:24:37;;;;;;;26.88;9.45;;;;;;;;;;5029946;28;20104;-62
2022/01/18 14:27:07;;;;;;;28.17;9.88;;;;;;;;;;5030332;28;20013;-61
2022/01/18 14:29:42;;;;;;;25.90;9.80;;;;;;;;;;5026651;28;20036;-62
2022/01/18 14:32:10;;;;;;;30.02;9.90;;;;;;;;;;5028715;28;20045;-62
2022/01/18 14:34:40;;;;;;;42.60;10.30;;;;;;;;;;5026960;28;20036;-61
2022/01/18 14:37:07;;;;;;;27.48;10.20;;;;;;;;;;5030101;28;20029;-61
2022/01/18 14:39:33;;;;;;;32.35;11.27;;;;;;;;;;5029591;28;20032;-61
2022/01/18 14:42:04;;;;;;;30.60;10.95;;;;;;;;;;5030789;28;20025;-61
2022/01/18 14:45:19;;;;;;;30.08;10.55;;;;;;;;;;5029879;28;20135;-61
2022/01/18 14:47:25;;;;;;;31.02;11.30;;;;;;;;;;5022055;28;20141;-61
2022/01/18 14:49:55;;;;;;;33.72;10.50;;;;;;;;;;5031131;28;20096;-61
2022/01/18 14:52:21;;;;;;;33.35;10.80;;;;;;;;;;5030536;28;20789;-61
2022/01/18 14:54:47;;;;;;;27.33;10.43;;;;;;;;;;5028500;28;20029;-61
2022/01/18 14:57:13;;;;;;;30.40;11.13;;;;;;;;;;5031436;28;20037;-61
2022/01/18 14:59:39;;;;;;;28.23;11.05;;;;;;;;;;5032359;28;20176;-61
2022/01/18 15:02:05;;;;;;;35.03;11.30;;;;;;;;;;5030501;28;20041;-60
2022/01/18 15:04:31;;;;;;;27.25;10.55;;;;;;;;;;5027807;28;20525;-61
2022/01/18 15:06:57;;;;;;;32.45;11.15;;;;;;;;;;5026680;28;20069;-61
2022/01/18 15:09:28;;;;;;;30.50;10.70;;;;;;;;;;5033579;28;20028;-61
2022/01/18 15:11:58;;;;;;;21.55;9.90;;;;;;;;;;5027341;28;20163;-61
2022/01/18 15:14:24;;;;;;;27.83;10.05;;;;;;;;;;5028486;28;20392;-61
2022/01/18 15:16:50;;;;;;;32.47;10.13;;;;;;;;;;5024977;28;20127;-62
2022/01/18 15:19:16;;;;;;;34.45;11.40;;;;;;;;;;5030223;28;20688;-61
2022/01/18 15:21:42;;;;;;;29.63;11.88;;;;;;;;;;5029738;28;20029;-61
2022/01/18 15:24:08;;;;;;;31.60;11.77;;;;;;;;;;5030592;28;20102;-61
2022/01/18 15:26:34;;;;;;;29.10;11.45;;;;;;;;;;5028711;28;20557;-61
2022/01/18 15:29:00;;;;;;;30.42;11.98;;;;;;;;;;5025123;28;20037;-61
2022/01/18 15:31:26;;;;;;;31.27;11.25;;;;;;;;;;5027896;28;20104;-61
2022/01/18 15:33:52;;;;;;;31.08;12.10;;;;;;;;;;5029301;28;20021;-61
2022/01/18 15:36:18;;;;;;;30.95;11.48;;;;;;;;;;5029805;28;20021;-61
2022/01/18 15:38:44;;;;;;;30.73;11.45;;;;;;;;;;5026727;28;20036;-61
2022/01/18 15:41:11;;;;;;;27.45;11.25;;;;;;;;;;5026972;28;20041;-61
2022/01/18 15:43:37;;;;;;;30.80;11.30;;;;;;;;;;5026136;28;20047;-61
2022/01/18 15:46:03;;;;;;;27.23;10.35;;;;;;;;;;5023548;28;20132;-60